sensor_id;sensor_type;location;lat;lon;timestamp;P1;durP1;ratioP1;P2;durP2;ratioP2
68377;SDS011;55322;48.146;11.516;2022-10-31T00:02:26;18.20;;;7.13;;
68377;SDS011;55322;48.146;11.516;2022-10-31T00:04:51;17.10;;;7.00;;
68377;SDS011;55322;48.146;11.516;2022-10-31T00:07:16;18.30;;;7.10;;
68377;SDS011;55322;48.146;11.516;2022-10-31T00:09:42;14.47;;;6.97;;
68377;SDS011;55322;48.146;11.516;2022-10-31T00:12:07;17.03;;;6.23;;
68377;SDS011;55322;48.146;11.516;2022-10-31T00:14:32;17.67;;;6.90;;
68377;SDS011;55322;48.146;11.516;2022-10-31T00:16:57;14.03;;;6.23;;
68377;SDS011;55322;48.146;11.516;2022-10-31T00:19:23;16.07;;;5.83;;
68377;SDS011;55322;48.146;11.516;2022-10-31T00:21:48;20.20;;;6.30;;
68377;SDS011;55322;48.146;11.516;2022-10-31T00:24:16;14.73;;;6.00;;
68377;SDS011;55322;48.146;11.516;2022-10-31T00:26:42;16.23;;;6.30;;
68377;SDS011;55322;48.146;11.516;2022-10-31T00:29:07;16.17;;;6.20;;
68377;SDS011;55322;48.146;11.516;2022-10-31T00:31:32;15.67;;;5.70;;
68377;SDS011;55322;48.146;11.516;2022-10-31T00:33:58;13.03;;;5.40;;
68377;SDS011;55322;48.146;11.516;2022-10-31T00:36:23;13.20;;;4.70;;
68377;SDS011;55322;48.146;11.516;2022-10-31T00:38:48;13.07;;;5.40;;
68377;SDS011;55322;48.146;11.516;2022-10-31T00:41:14;14.55;;;4.95;;
68377;SDS011;55322;48.146;11.516;2022-10-31T00:43:41;12.30;;;4.90;;
68377;SDS011;55322;48.146;11.516;2022-10-31T00:46:07;14.88;;;4.90;;
68377;SDS011;55322;48.146;11.516;2022-10-31T00:48:33;17.00;;;5.27;;
68377;SDS011;55322;48.146;11.516;2022-10-31T00:50:58;13.87;;;5.10;;
68377;SDS011;55322;48.146;11.516;2022-10-31T00:53:23;13.13;;;4.87;;
68377;SDS011;55322;48.146;11.516;2022-10-31T00:55:49;14.17;;;4.90;;
68377;SDS011;55322;48.146;11.516;2022-10-31T00:58:14;16.13;;;4.87;;
68377;SDS011;55322;48.146;11.516;2022-10-31T01:00:40;13.00;;;4.80;;
68377;SDS011;55322;48.146;11.516;2022-10-31T01:03:05;12.43;;;4.32;;
68377;SDS011;55322;48.146;11.516;2022-10-31T01:05:30;17.27;;;5.37;;
68377;SDS011;55322;48.146;11.516;2022-10-31T01:07:56;18.23;;;5.07;;
68377;SDS011;55322;48.146;11.516;2022-10-31T01:10:21;14.70;;;4.70;;
68377;SDS011;55322;48.146;11.516;2022-10-31T01:12:47;14.80;;;5.00;;
68377;SDS011;55322;48.146;11.516;2022-10-31T01:15:15;14.20;;;4.63;;
68377;SDS011;55322;48.146;11.516;2022-10-31T01:17:43;13.57;;;4.55;;
68377;SDS011;55322;48.146;11.516;2022-10-31T01:20:09;12.17;;;4.17;;
68377;SDS011;55322;48.146;11.516;2022-10-31T01:22:35;15.38;;;4.40;;
68377;SDS011;55322;48.146;11.516;2022-10-31T01:25:01;12.43;;;4.80;;
68377;SDS011;55322;48.146;11.516;2022-10-31T01:27:26;14.63;;;4.20;;
68377;SDS011;55322;48.146;11.516;2022-10-31T01:29:52;11.33;;;4.37;;
68377;SDS011;55322;48.146;11.516;2022-10-31T01:32:17;15.53;;;5.53;;
68377;SDS011;55322;48.146;11.516;2022-10-31T01:34:42;12.27;;;4.30;;
68377;SDS011;55322;48.146;11.516;2022-10-31T01:37:08;14.63;;;4.70;;
68377;SDS011;55322;48.146;11.516;2022-10-31T01:39:33;13.20;;;4.27;;
68377;SDS011;55322;48.146;11.516;2022-10-31T01:41:58;12.03;;;4.20;;
68377;SDS011;55322;48.146;11.516;2022-10-31T01:49:38;11.98;;;4.65;;
68377;SDS011;55322;48.146;11.516;2022-10-31T01:54:47;15.55;;;4.38;;
68377;SDS011;55322;48.146;11.516;2022-10-31T01:57:18;11.20;;;4.50;;
68377;SDS011;55322;48.146;11.516;2022-10-31T01:59:47;11.73;;;5.30;;
68377;SDS011;55322;48.146;11.516;2022-10-31T02:02:16;14.32;;;4.78;;
68377;SDS011;55322;48.146;11.516;2022-10-31T02:04:43;11.93;;;4.43;;
68377;SDS011;55322;48.146;11.516;2022-10-31T02:07:10;15.10;;;4.88;;
68377;SDS011;55322;48.146;11.516;2022-10-31T02:09:39;14.65;;;4.80;;
68377;SDS011;55322;48.146;11.516;2022-10-31T02:12:05;12.55;;;4.25;;
68377;SDS011;55322;48.146;11.516;2022-10-31T02:14:33;13.50;;;4.75;;
68377;SDS011;55322;48.146;11.516;2022-10-31T02:17:00;11.47;;;4.33;;
68377;SDS011;55322;48.146;11.516;2022-10-31T02:19:47;13.85;;;4.25;;
68377;SDS011;55322;48.146;11.516;2022-10-31T02:22:21;14.02;;;4.20;;
68377;SDS011;55322;48.146;11.516;2022-10-31T02:30:51;14.30;;;4.60;;
68377;SDS011;55322;48.146;11.516;2022-10-31T02:34:09;13.45;;;4.43;;
68377;SDS011;55322;48.146;11.516;2022-10-31T02:36:32;12.77;;;4.22;;
68377;SDS011;55322;48.146;11.516;2022-10-31T02:39:07;11.60;;;4.50;;
68377;SDS011;55322;48.146;11.516;2022-10-31T02:46:50;12.15;;;4.63;;
68377;SDS011;55322;48.146;11.516;2022-10-31T02:49:22;13.43;;;4.22;;
68377;SDS011;55322;48.146;11.516;2022-10-31T02:51:52;13.43;;;3.97;;
68377;SDS011;55322;48.146;11.516;2022-10-31T02:54:19;13.23;;;4.55;;
68377;SDS011;55322;48.146;11.516;2022-10-31T02:56:47;14.97;;;4.57;;
68377;SDS011;55322;48.146;11.516;2022-10-31T02:59:15;14.27;;;4.75;;
68377;SDS011;55322;48.146;11.516;2022-10-31T03:01:44;14.38;;;4.95;;
68377;SDS011;55322;48.146;11.516;2022-10-31T03:04:25;13.93;;;4.72;;
68377;SDS011;55322;48.146;11.516;2022-10-31T03:07:25;11.70;;;4.33;;
68377;SDS011;55322;48.146;11.516;2022-10-31T03:10:22;12.45;;;4.22;;
68377;SDS011;55322;48.146;11.516;2022-10-31T03:13:02;10.45;;;4.57;;
68377;SDS011;55322;48.146;11.516;2022-10-31T03:15:33;12.48;;;4.35;;
68377;SDS011;55322;48.146;11.516;2022-10-31T03:21:00;12.77;;;4.83;;
68377;SDS011;55322;48.146;11.516;2022-10-31T03:23:30;12.35;;;4.13;;
68377;SDS011;55322;48.146;11.516;2022-10-31T03:25:57;9.10;;;4.10;;
68377;SDS011;55322;48.146;11.516;2022-10-31T03:28:29;11.43;;;4.78;;
68377;SDS011;55322;48.146;11.516;2022-10-31T03:30:57;11.80;;;4.47;;
68377;SDS011;55322;48.146;11.516;2022-10-31T03:33:28;13.47;;;5.03;;
68377;SDS011;55322;48.146;11.516;2022-10-31T03:36:04;11.40;;;4.32;;
68377;SDS011;55322;48.146;11.516;2022-10-31T03:38:32;11.95;;;4.97;;
68377;SDS011;55322;48.146;11.516;2022-10-31T03:41:01;14.27;;;4.93;;
68377;SDS011;55322;48.146;11.516;2022-10-31T03:43:29;13.63;;;4.55;;
68377;SDS011;55322;48.146;11.516;2022-10-31T03:45:58;11.67;;;4.27;;
68377;SDS011;55322;48.146;11.516;2022-10-31T03:48:23;12.05;;;4.82;;
68377;SDS011;55322;48.146;11.516;2022-10-31T03:50:57;14.70;;;4.05;;
68377;SDS011;55322;48.146;11.516;2022-10-31T03:53:39;11.50;;;4.60;;
68377;SDS011;55322;48.146;11.516;2022-10-31T03:56:12;10.10;;;4.10;;
68377;SDS011;55322;48.146;11.516;2022-10-31T04:01:31;12.55;;;4.22;;
68377;SDS011;55322;48.146;11.516;2022-10-31T04:03:59;15.82;;;4.63;;
68377;SDS011;55322;48.146;11.516;2022-10-31T04:06:26;14.25;;;4.72;;
68377;SDS011;55322;48.146;11.516;2022-10-31T04:08:54;11.63;;;4.03;;
68377;SDS011;55322;48.146;11.516;2022-10-31T04:11:24;11.57;;;4.30;;
68377;SDS011;55322;48.146;11.516;2022-10-31T04:13:53;14.20;;;4.03;;
68377;SDS011;55322;48.146;11.516;2022-10-31T04:16:20;14.25;;;4.75;;
68377;SDS011;55322;48.146;11.516;2022-10-31T04:18:47;13.05;;;3.92;;
68377;SDS011;55322;48.146;11.516;2022-10-31T04:21:12;12.73;;;4.23;;
68377;SDS011;55322;48.146;11.516;2022-10-31T04:23:38;12.70;;;4.43;;
68377;SDS011;55322;48.146;11.516;2022-10-31T04:26:03;13.50;;;4.83;;
68377;SDS011;55322;48.146;11.516;2022-10-31T04:28:29;12.35;;;5.10;;
68377;SDS011;55322;48.146;11.516;2022-10-31T04:30:54;13.40;;;4.70;;
68377;SDS011;55322;48.146;11.516;2022-10-31T04:33:19;13.83;;;4.70;;
68377;SDS011;55322;48.146;11.516;2022-10-31T04:35:45;14.50;;;4.60;;
68377;SDS011;55322;48.146;11.516;2022-10-31T04:38:11;13.10;;;4.55;;
68377;SDS011;55322;48.146;11.516;2022-10-31T04:40:36;10.70;;;4.80;;
68377;SDS011;55322;48.146;11.516;2022-10-31T04:43:02;14.23;;;5.20;;
68377;SDS011;55322;48.146;11.516;2022-10-31T04:45:27;13.43;;;4.80;;
68377;SDS011;55322;48.146;11.516;2022-10-31T04:47:52;12.90;;;4.20;;
68377;SDS011;55322;48.146;11.516;2022-10-31T04:50:18;13.43;;;5.30;;
68377;SDS011;55322;48.146;11.516;2022-10-31T04:52:44;13.83;;;4.23;;
68377;SDS011;55322;48.146;11.516;2022-10-31T04:55:10;11.68;;;4.80;;
68377;SDS011;55322;48.146;11.516;2022-10-31T04:57:42;14.33;;;4.77;;
68377;SDS011;55322;48.146;11.516;2022-10-31T05:00:09;12.05;;;4.82;;
68377;SDS011;55322;48.146;11.516;2022-10-31T05:02:43;13.52;;;4.68;;
68377;SDS011;55322;48.146;11.516;2022-10-31T05:05:12;13.18;;;4.18;;
68377;SDS011;55322;48.146;11.516;2022-10-31T05:07:39;13.52;;;4.63;;
68377;SDS011;55322;48.146;11.516;2022-10-31T05:10:09;13.17;;;4.77;;
68377;SDS011;55322;48.146;11.516;2022-10-31T05:12:36;8.95;;;4.15;;
68377;SDS011;55322;48.146;11.516;2022-10-31T05:15:01;11.73;;;4.50;;
68377;SDS011;55322;48.146;11.516;2022-10-31T05:17:27;11.88;;;4.28;;
68377;SDS011;55322;48.146;11.516;2022-10-31T05:19:53;11.57;;;4.00;;
68377;SDS011;55322;48.146;11.516;2022-10-31T05:22:18;11.13;;;4.07;;
68377;SDS011;55322;48.146;11.516;2022-10-31T05:24:43;14.00;;;4.70;;
68377;SDS011;55322;48.146;11.516;2022-10-31T05:27:08;12.87;;;4.60;;
68377;SDS011;55322;48.146;11.516;2022-10-31T05:29:36;11.77;;;4.43;;
68377;SDS011;55322;48.146;11.516;2022-10-31T05:32:02;10.50;;;4.13;;
68377;SDS011;55322;48.146;11.516;2022-10-31T05:34:27;11.90;;;3.90;;
68377;SDS011;55322;48.146;11.516;2022-10-31T05:36:52;11.80;;;3.80;;
68377;SDS011;55322;48.146;11.516;2022-10-31T05:39:18;13.30;;;4.27;;
68377;SDS011;55322;48.146;11.516;2022-10-31T05:41:43;13.27;;;4.30;;
68377;SDS011;55322;48.146;11.516;2022-10-31T05:44:08;14.93;;;4.20;;
68377;SDS011;55322;48.146;11.516;2022-10-31T05:46:34;12.77;;;4.63;;
68377;SDS011;55322;48.146;11.516;2022-10-31T05:48:59;17.13;;;4.57;;
68377;SDS011;55322;48.146;11.516;2022-10-31T05:51:24;11.47;;;4.10;;
68377;SDS011;55322;48.146;11.516;2022-10-31T05:53:49;16.73;;;4.47;;
68377;SDS011;55322;48.146;11.516;2022-10-31T05:56:15;12.53;;;4.00;;
68377;SDS011;55322;48.146;11.516;2022-10-31T05:58:40;10.53;;;3.70;;
68377;SDS011;55322;48.146;11.516;2022-10-31T06:01:05;12.07;;;3.77;;
68377;SDS011;55322;48.146;11.516;2022-10-31T06:03:31;12.60;;;4.57;;
68377;SDS011;55322;48.146;11.516;2022-10-31T06:05:56;14.30;;;3.95;;
68377;SDS011;55322;48.146;11.516;2022-10-31T06:08:21;12.57;;;4.70;;
68377;SDS011;55322;48.146;11.516;2022-10-31T06:10:47;11.00;;;3.87;;
68377;SDS011;55322;48.146;11.516;2022-10-31T06:13:12;14.77;;;4.40;;
68377;SDS011;55322;48.146;11.516;2022-10-31T06:15:37;10.07;;;3.90;;
68377;SDS011;55322;48.146;11.516;2022-10-31T06:18:03;12.40;;;3.60;;
68377;SDS011;55322;48.146;11.516;2022-10-31T06:20:30;13.57;;;3.77;;
68377;SDS011;55322;48.146;11.516;2022-10-31T06:22:56;14.05;;;4.00;;
68377;SDS011;55322;48.146;11.516;2022-10-31T06:25:22;11.50;;;3.80;;
68377;SDS011;55322;48.146;11.516;2022-10-31T06:27:48;9.93;;;3.50;;
68377;SDS011;55322;48.146;11.516;2022-10-31T06:30:13;9.23;;;3.47;;
68377;SDS011;55322;48.146;11.516;2022-10-31T06:32:39;12.30;;;3.60;;
68377;SDS011;55322;48.146;11.516;2022-10-31T06:35:04;12.83;;;4.67;;
68377;SDS011;55322;48.146;11.516;2022-10-31T06:37:30;13.47;;;3.60;;
68377;SDS011;55322;48.146;11.516;2022-10-31T06:39:55;11.43;;;3.63;;
68377;SDS011;55322;48.146;11.516;2022-10-31T06:42:20;11.90;;;3.80;;
68377;SDS011;55322;48.146;11.516;2022-10-31T06:44:46;9.60;;;3.80;;
68377;SDS011;55322;48.146;11.516;2022-10-31T06:47:11;17.30;;;4.27;;
68377;SDS011;55322;48.146;11.516;2022-10-31T06:49:36;11.13;;;4.00;;
68377;SDS011;55322;48.146;11.516;2022-10-31T06:52:01;12.03;;;3.80;;
68377;SDS011;55322;48.146;11.516;2022-10-31T06:54:27;12.47;;;3.73;;
68377;SDS011;55322;48.146;11.516;2022-10-31T06:56:52;13.50;;;3.77;;
68377;SDS011;55322;48.146;11.516;2022-10-31T06:59:18;12.43;;;3.93;;
68377;SDS011;55322;48.146;11.516;2022-10-31T07:01:43;12.80;;;4.23;;
68377;SDS011;55322;48.146;11.516;2022-10-31T07:04:09;14.10;;;4.17;;
68377;SDS011;55322;48.146;11.516;2022-10-31T07:06:35;10.20;;;3.80;;
68377;SDS011;55322;48.146;11.516;2022-10-31T07:09:00;13.23;;;4.30;;
68377;SDS011;55322;48.146;11.516;2022-10-31T07:11:25;13.17;;;5.10;;
68377;SDS011;55322;48.146;11.516;2022-10-31T07:13:51;14.77;;;4.97;;
68377;SDS011;55322;48.146;11.516;2022-10-31T07:16:16;11.67;;;4.13;;
68377;SDS011;55322;48.146;11.516;2022-10-31T07:18:41;13.07;;;3.93;;
68377;SDS011;55322;48.146;11.516;2022-10-31T07:21:06;15.37;;;3.87;;
68377;SDS011;55322;48.146;11.516;2022-10-31T07:23:32;12.80;;;3.63;;
68377;SDS011;55322;48.146;11.516;2022-10-31T07:25:57;13.90;;;4.20;;
68377;SDS011;55322;48.146;11.516;2022-10-31T07:28:24;13.02;;;4.28;;
68377;SDS011;55322;48.146;11.516;2022-10-31T07:30:54;11.20;;;3.60;;
68377;SDS011;55322;48.146;11.516;2022-10-31T07:33:22;15.35;;;3.53;;
68377;SDS011;55322;48.146;11.516;2022-10-31T07:35:48;11.02;;;3.83;;
68377;SDS011;55322;48.146;11.516;2022-10-31T07:38:13;8.80;;;3.43;;
68377;SDS011;55322;48.146;11.516;2022-10-31T07:40:40;10.73;;;4.13;;
68377;SDS011;55322;48.146;11.516;2022-10-31T07:43:06;13.53;;;4.57;;
68377;SDS011;55322;48.146;11.516;2022-10-31T07:45:31;14.50;;;4.20;;
68377;SDS011;55322;48.146;11.516;2022-10-31T07:47:57;14.73;;;3.60;;
68377;SDS011;55322;48.146;11.516;2022-10-31T07:50:23;12.97;;;3.67;;
68377;SDS011;55322;48.146;11.516;2022-10-31T07:55:31;12.48;;;4.05;;
68377;SDS011;55322;48.146;11.516;2022-10-31T07:58:01;12.43;;;4.68;;
68377;SDS011;55322;48.146;11.516;2022-10-31T08:00:28;14.07;;;4.57;;
68377;SDS011;55322;48.146;11.516;2022-10-31T08:03:00;10.77;;;3.97;;
68377;SDS011;55322;48.146;11.516;2022-10-31T08:05:26;11.77;;;3.60;;
68377;SDS011;55322;48.146;11.516;2022-10-31T08:07:52;12.55;;;4.10;;
68377;SDS011;55322;48.146;11.516;2022-10-31T08:10:18;14.57;;;4.40;;
68377;SDS011;55322;48.146;11.516;2022-10-31T08:12:43;18.60;;;4.63;;
68377;SDS011;55322;48.146;11.516;2022-10-31T08:15:08;16.93;;;4.30;;
68377;SDS011;55322;48.146;11.516;2022-10-31T08:17:35;12.35;;;4.40;;
68377;SDS011;55322;48.146;11.516;2022-10-31T08:20:01;21.88;;;4.97;;
68377;SDS011;55322;48.146;11.516;2022-10-31T08:22:26;14.93;;;5.00;;
68377;SDS011;55322;48.146;11.516;2022-10-31T08:24:52;17.67;;;5.10;;
68377;SDS011;55322;48.146;11.516;2022-10-31T08:27:17;16.77;;;5.33;;
68377;SDS011;55322;48.146;11.516;2022-10-31T08:29:42;15.07;;;4.60;;
68377;SDS011;55322;48.146;11.516;2022-10-31T08:32:07;21.70;;;5.23;;
68377;SDS011;55322;48.146;11.516;2022-10-31T08:34:33;15.80;;;5.80;;
68377;SDS011;55322;48.146;11.516;2022-10-31T08:36:58;16.40;;;5.63;;
68377;SDS011;55322;48.146;11.516;2022-10-31T08:39:23;17.60;;;5.30;;
68377;SDS011;55322;48.146;11.516;2022-10-31T08:41:49;18.00;;;5.47;;
68377;SDS011;55322;48.146;11.516;2022-10-31T08:44:15;13.45;;;4.95;;
68377;SDS011;55322;48.146;11.516;2022-10-31T08:46:41;14.47;;;5.20;;
68377;SDS011;55322;48.146;11.516;2022-10-31T08:49:06;15.07;;;5.22;;
68377;SDS011;55322;48.146;11.516;2022-10-31T08:51:31;17.83;;;6.37;;
68377;SDS011;55322;48.146;11.516;2022-10-31T08:53:57;13.93;;;5.47;;
68377;SDS011;55322;48.146;11.516;2022-10-31T08:56:22;14.20;;;6.37;;
68377;SDS011;55322;48.146;11.516;2022-10-31T08:58:48;15.90;;;6.13;;
68377;SDS011;55322;48.146;11.516;2022-10-31T09:01:13;14.37;;;6.20;;
68377;SDS011;55322;48.146;11.516;2022-10-31T09:03:38;16.52;;;6.10;;
68377;SDS011;55322;48.146;11.516;2022-10-31T09:06:04;15.73;;;6.63;;
68377;SDS011;55322;48.146;11.516;2022-10-31T09:08:33;15.00;;;5.45;;
68377;SDS011;55322;48.146;11.516;2022-10-31T09:10:59;14.40;;;6.30;;
68377;SDS011;55322;48.146;11.516;2022-10-31T09:13:25;18.13;;;6.05;;
68377;SDS011;55322;48.146;11.516;2022-10-31T09:15:51;20.23;;;6.33;;
68377;SDS011;55322;48.146;11.516;2022-10-31T09:18:17;14.88;;;6.00;;
68377;SDS011;55322;48.146;11.516;2022-10-31T09:20:44;17.55;;;6.55;;
68377;SDS011;55322;48.146;11.516;2022-10-31T09:25:38;16.13;;;5.88;;
68377;SDS011;55322;48.146;11.516;2022-10-31T09:28:04;16.13;;;5.72;;
68377;SDS011;55322;48.146;11.516;2022-10-31T09:30:32;22.02;;;6.85;;
68377;SDS011;55322;48.146;11.516;2022-10-31T09:32:59;14.43;;;5.60;;
68377;SDS011;55322;48.146;11.516;2022-10-31T09:35:26;14.90;;;4.90;;
68377;SDS011;55322;48.146;11.516;2022-10-31T09:37:55;15.98;;;4.90;;
68377;SDS011;55322;48.146;11.516;2022-10-31T09:43:09;19.25;;;5.07;;
68377;SDS011;55322;48.146;11.516;2022-10-31T09:45:47;19.77;;;5.30;;
68377;SDS011;55322;48.146;11.516;2022-10-31T09:50:53;18.98;;;5.40;;
68377;SDS011;55322;48.146;11.516;2022-10-31T09:55:57;12.13;;;4.57;;
68377;SDS011;55322;48.146;11.516;2022-10-31T09:58:27;15.88;;;4.85;;
68377;SDS011;55322;48.146;11.516;2022-10-31T10:00:56;9.93;;;4.40;;
68377;SDS011;55322;48.146;11.516;2022-10-31T10:08:39;14.13;;;4.10;;
68377;SDS011;55322;48.146;11.516;2022-10-31T10:16:13;16.90;;;3.88;;
68377;SDS011;55322;48.146;11.516;2022-10-31T10:26:43;14.05;;;4.05;;
68377;SDS011;55322;48.146;11.516;2022-10-31T10:31:57;12.67;;;3.20;;
68377;SDS011;55322;48.146;11.516;2022-10-31T10:37:00;13.70;;;2.90;;
68377;SDS011;55322;48.146;11.516;2022-10-31T10:39:36;11.30;;;2.30;;
68377;SDS011;55322;48.146;11.516;2022-10-31T10:42:06;14.32;;;2.92;;
68377;SDS011;55322;48.146;11.516;2022-10-31T10:44:56;11.73;;;2.77;;
68377;SDS011;55322;48.146;11.516;2022-10-31T10:47:44;10.40;;;2.65;;
68377;SDS011;55322;48.146;11.516;2022-10-31T10:50:19;9.65;;;2.63;;
68377;SDS011;55322;48.146;11.516;2022-10-31T10:58:20;11.40;;;2.50;;
68377;SDS011;55322;48.146;11.516;2022-10-31T11:00:46;13.70;;;2.40;;
68377;SDS011;55322;48.146;11.516;2022-10-31T11:03:16;12.30;;;2.77;;
68377;SDS011;55322;48.146;11.516;2022-10-31T11:05:52;11.13;;;2.75;;
68377;SDS011;55322;48.146;11.516;2022-10-31T11:08:26;9.65;;;2.35;;
68377;SDS011;55322;48.146;11.516;2022-10-31T11:11:32;9.52;;;2.35;;
68377;SDS011;55322;48.146;11.516;2022-10-31T11:14:00;11.60;;;2.45;;
68377;SDS011;55322;48.146;11.516;2022-10-31T11:16:29;10.33;;;2.20;;
68377;SDS011;55322;48.146;11.516;2022-10-31T11:21:37;9.68;;;2.45;;
68377;SDS011;55322;48.146;11.516;2022-10-31T11:26:45;8.93;;;2.10;;
68377;SDS011;55322;48.146;11.516;2022-10-31T11:31:53;10.18;;;2.20;;
68377;SDS011;55322;48.146;11.516;2022-10-31T11:34:26;8.75;;;1.90;;
68377;SDS011;55322;48.146;11.516;2022-10-31T11:37:44;8.87;;;2.13;;
68377;SDS011;55322;48.146;11.516;2022-10-31T11:39:52;10.60;;;2.22;;
68377;SDS011;55322;48.146;11.516;2022-10-31T11:42:24;12.70;;;2.45;;
68377;SDS011;55322;48.146;11.516;2022-10-31T11:44:52;10.80;;;2.03;;
68377;SDS011;55322;48.146;11.516;2022-10-31T11:47:29;13.00;;;2.65;;
68377;SDS011;55322;48.146;11.516;2022-10-31T11:49:57;11.43;;;2.20;;
68377;SDS011;55322;48.146;11.516;2022-10-31T11:52:30;7.82;;;2.30;;
68377;SDS011;55322;48.146;11.516;2022-10-31T11:54:58;11.65;;;2.15;;
68377;SDS011;55322;48.146;11.516;2022-10-31T11:57:29;8.40;;;2.15;;
68377;SDS011;55322;48.146;11.516;2022-10-31T11:59:57;11.40;;;2.33;;
68377;SDS011;55322;48.146;11.516;2022-10-31T12:02:24;12.33;;;2.30;;
68377;SDS011;55322;48.146;11.516;2022-10-31T12:07:32;10.73;;;2.42;;
68377;SDS011;55322;48.146;11.516;2022-10-31T12:09:58;11.70;;;2.67;;
68377;SDS011;55322;48.146;11.516;2022-10-31T12:40:49;13.20;;;3.60;;
68377;SDS011;55322;48.146;11.516;2022-10-31T12:47:03;18.13;;;4.47;;
68377;SDS011;55322;48.146;11.516;2022-10-31T12:52:39;10.60;;;2.40;;
68377;SDS011;55322;48.146;11.516;2022-10-31T12:57:45;15.43;;;2.70;;
68377;SDS011;55322;48.146;11.516;2022-10-31T13:00:16;12.73;;;2.78;;
68377;SDS011;55322;48.146;11.516;2022-10-31T13:03:01;10.93;;;2.67;;
68377;SDS011;55322;48.146;11.516;2022-10-31T13:05:40;11.30;;;2.65;;
68377;SDS011;55322;48.146;11.516;2022-10-31T13:10:48;11.43;;;3.10;;
68377;SDS011;55322;48.146;11.516;2022-10-31T13:15:58;10.30;;;2.60;;
68377;SDS011;55322;48.146;11.516;2022-10-31T13:18:29;10.85;;;2.70;;
68377;SDS011;55322;48.146;11.516;2022-10-31T13:20:58;7.97;;;2.50;;
68377;SDS011;55322;48.146;11.516;2022-10-31T13:23:35;12.35;;;2.80;;
68377;SDS011;55322;48.146;11.516;2022-10-31T13:26:10;12.18;;;2.75;;
68377;SDS011;55322;48.146;11.516;2022-10-31T13:28:54;13.00;;;3.00;;
68377;SDS011;55322;48.146;11.516;2022-10-31T13:31:25;9.50;;;2.60;;
68377;SDS011;55322;48.146;11.516;2022-10-31T13:33:53;13.07;;;2.93;;
68377;SDS011;55322;48.146;11.516;2022-10-31T13:41:51;14.10;;;2.90;;
68377;SDS011;55322;48.146;11.516;2022-10-31T13:44:34;12.40;;;2.90;;
68377;SDS011;55322;48.146;11.516;2022-10-31T13:47:02;10.30;;;2.97;;
68377;SDS011;55322;48.146;11.516;2022-10-31T13:51:53;14.50;;;3.03;;
68377;SDS011;55322;48.146;11.516;2022-10-31T13:54:39;14.70;;;2.90;;
68377;SDS011;55322;48.146;11.516;2022-10-31T13:57:07;18.07;;;3.23;;
68377;SDS011;55322;48.146;11.516;2022-10-31T13:59:45;10.95;;;2.38;;
68377;SDS011;55322;48.146;11.516;2022-10-31T14:02:14;14.68;;;3.10;;
68377;SDS011;55322;48.146;11.516;2022-10-31T14:04:46;11.55;;;2.88;;
68377;SDS011;55322;48.146;11.516;2022-10-31T14:07:14;12.98;;;2.92;;
68377;SDS011;55322;48.146;11.516;2022-10-31T14:12:44;15.80;;;3.03;;
68377;SDS011;55322;48.146;11.516;2022-10-31T14:15:14;15.38;;;3.03;;
68377;SDS011;55322;48.146;11.516;2022-10-31T14:17:49;12.50;;;3.13;;
68377;SDS011;55322;48.146;11.516;2022-10-31T14:22:40;12.93;;;2.73;;
68377;SDS011;55322;48.146;11.516;2022-10-31T14:27:58;10.82;;;2.60;;
68377;SDS011;55322;48.146;11.516;2022-10-31T14:30:50;13.25;;;2.83;;
68377;SDS011;55322;48.146;11.516;2022-10-31T14:33:18;10.93;;;2.63;;
68377;SDS011;55322;48.146;11.516;2022-10-31T14:35:53;10.97;;;2.90;;
68377;SDS011;55322;48.146;11.516;2022-10-31T14:41:08;12.57;;;2.95;;
68377;SDS011;55322;48.146;11.516;2022-10-31T14:43:49;12.27;;;2.83;;
68377;SDS011;55322;48.146;11.516;2022-10-31T14:49:21;16.53;;;3.33;;
68377;SDS011;55322;48.146;11.516;2022-10-31T14:51:56;14.98;;;2.90;;
68377;SDS011;55322;48.146;11.516;2022-10-31T14:57:05;12.68;;;2.85;;
68377;SDS011;55322;48.146;11.516;2022-10-31T14:59:46;13.57;;;3.22;;
68377;SDS011;55322;48.146;11.516;2022-10-31T15:02:20;10.00;;;2.60;;
68377;SDS011;55322;48.146;11.516;2022-10-31T15:04:51;13.25;;;3.05;;
68377;SDS011;55322;48.146;11.516;2022-10-31T15:07:19;11.77;;;3.63;;
68377;SDS011;55322;48.146;11.516;2022-10-31T15:14:48;18.03;;;7.10;;
68377;SDS011;55322;48.146;11.516;2022-10-31T15:17:15;14.80;;;4.57;;
68377;SDS011;55322;48.146;11.516;2022-10-31T15:19:40;14.57;;;3.55;;
68377;SDS011;55322;48.146;11.516;2022-10-31T15:22:07;11.98;;;3.80;;
68377;SDS011;55322;48.146;11.516;2022-10-31T15:24:39;15.53;;;4.20;;
68377;SDS011;55322;48.146;11.516;2022-10-31T15:27:04;13.15;;;3.40;;
68377;SDS011;55322;48.146;11.516;2022-10-31T15:29:30;15.87;;;3.77;;
68377;SDS011;55322;48.146;11.516;2022-10-31T15:31:57;14.38;;;3.58;;
68377;SDS011;55322;48.146;11.516;2022-10-31T15:34:40;16.65;;;4.75;;
68377;SDS011;55322;48.146;11.516;2022-10-31T15:37:13;14.87;;;4.10;;
68377;SDS011;55322;48.146;11.516;2022-10-31T15:39:41;16.35;;;5.10;;
68377;SDS011;55322;48.146;11.516;2022-10-31T15:42:28;16.90;;;5.30;;
68377;SDS011;55322;48.146;11.516;2022-10-31T15:47:34;17.15;;;4.82;;
68377;SDS011;55322;48.146;11.516;2022-10-31T15:50:01;15.77;;;4.73;;
68377;SDS011;55322;48.146;11.516;2022-10-31T15:52:29;15.73;;;4.63;;
68377;SDS011;55322;48.146;11.516;2022-10-31T15:55:05;18.13;;;5.00;;
68377;SDS011;55322;48.146;11.516;2022-10-31T15:57:39;16.05;;;3.95;;
68377;SDS011;55322;48.146;11.516;2022-10-31T16:00:47;18.02;;;5.63;;
68377;SDS011;55322;48.146;11.516;2022-10-31T16:05:45;14.85;;;4.80;;
68377;SDS011;55322;48.146;11.516;2022-10-31T16:10:55;15.80;;;7.13;;
68377;SDS011;55322;48.146;11.516;2022-10-31T16:13:29;17.50;;;6.22;;
68377;SDS011;55322;48.146;11.516;2022-10-31T16:15:57;19.07;;;6.17;;
68377;SDS011;55322;48.146;11.516;2022-10-31T16:18:26;16.67;;;5.72;;
68377;SDS011;55322;48.146;11.516;2022-10-31T16:20:53;17.63;;;6.75;;
68377;SDS011;55322;48.146;11.516;2022-10-31T16:23:21;14.45;;;5.30;;
68377;SDS011;55322;48.146;11.516;2022-10-31T16:25:49;14.82;;;5.68;;
68377;SDS011;55322;48.146;11.516;2022-10-31T16:28:16;17.97;;;5.10;;
68377;SDS011;55322;48.146;11.516;2022-10-31T16:30:47;15.50;;;6.00;;
68377;SDS011;55322;48.146;11.516;2022-10-31T16:33:33;14.00;;;5.22;;
68377;SDS011;55322;48.146;11.516;2022-10-31T16:38:53;17.17;;;5.78;;
68377;SDS011;55322;48.146;11.516;2022-10-31T16:41:21;18.53;;;5.63;;
68377;SDS011;55322;48.146;11.516;2022-10-31T16:43:48;18.38;;;6.57;;
68377;SDS011;55322;48.146;11.516;2022-10-31T16:46:14;18.15;;;7.80;;
68377;SDS011;55322;48.146;11.516;2022-10-31T16:48:43;16.93;;;6.30;;
68377;SDS011;55322;48.146;11.516;2022-10-31T16:51:09;18.83;;;7.77;;
68377;SDS011;55322;48.146;11.516;2022-10-31T16:53:34;15.93;;;7.27;;
68377;SDS011;55322;48.146;11.516;2022-10-31T16:56:01;21.23;;;8.33;;
68377;SDS011;55322;48.146;11.516;2022-10-31T16:58:29;22.65;;;8.60;;
68377;SDS011;55322;48.146;11.516;2022-10-31T17:00:57;18.40;;;9.53;;
68377;SDS011;55322;48.146;11.516;2022-10-31T17:03:23;29.42;;;14.93;;
68377;SDS011;55322;48.146;11.516;2022-10-31T17:05:48;38.50;;;20.23;;
68377;SDS011;55322;48.146;11.516;2022-10-31T17:08:14;46.53;;;25.97;;
68377;SDS011;55322;48.146;11.516;2022-10-31T17:10:40;37.70;;;20.00;;
68377;SDS011;55322;48.146;11.516;2022-10-31T17:13:07;37.33;;;22.73;;